Terminal Aerodrome Forecast
Issued by NWS Pueblo, CO

Home | Current Version | Previous Version | Text Only | Print | Product List | Glossary On
Versions: 1 2 3 4 5 6 7 8 9 10 11 12 13 14 15 16 17 18 19 20 21 22 23 24 25 26 27 28 29 30 31 32 33 34 35 36 37 38 39 40 41 42 43 44 45 46 47 48
000
FTUS45 KPUB 040530
TAFALS
TAF
KALS 040530Z 0406/0506 20010KT P6SM SCT130
     FM041400 20006KT P6SM VCSH SCT040 BKN080
     FM041800 02008KT 3SM -SN BR SCT020 BKN040
     FM042200 34010KT P6SM VCSH SCT020 BKN050
     FM050400 VRB05KT P6SM FEW100=

USA.gov is the U.S. government's official web portal to all federal, state and local government web resources and services.